Time;durP1;ratioP1;P1;durP2;ratioP2;P2;SDS_P1;SDS_P2;PMS_P1;PMS_P2;Temp;Humidity;BMP_temperature;BMP_pressure;BME280_temperature;BME280_humidity;BME280_pressure;Samples;Min_cycle;Max_cycle;Signal;HPM_P1;HPM_P2
2023/06/08 00:01:43;;;;;;;45.60;27.13;;;15.50;84.80;;;;;;5037483;28;20406;-78
2023/06/08 00:04:10;;;;;;;39.53;25.42;;;15.50;85.00;;;;;;5037311;28;20116;-78
2023/06/08 00:06:37;;;;;;;40.85;25.92;;;15.50;85.30;;;;;;5031979;28;20551;-79
2023/06/08 00:09:06;;;;;;;42.10;25.20;;;15.50;85.20;;;;;;5041729;28;20036;-78
2023/06/08 00:11:32;;;;;;;43.10;26.42;;;15.50;85.30;;;;;;5036963;28;20044;-78
2023/06/08 00:13:59;;;;;;;42.83;25.83;;;15.50;85.40;;;;;;5038926;28;20416;-79
2023/06/08 00:16:25;;;;;;;44.47;25.92;;;15.50;85.30;;;;;;5037607;28;20079;-77
2023/06/08 00:18:56;;;;;;;41.20;27.65;;;15.50;85.30;;;;;;5044047;28;20033;-78
2023/06/08 00:21:23;;;;;;;41.92;27.08;;;15.50;85.20;;;;;;5041904;28;20083;-77
2023/06/08 00:23:52;;;;;;;43.88;26.75;;;15.50;85.30;;;;;;5040474;28;20240;-77
2023/06/08 00:26:18;;;;;;;37.08;26.40;;;15.40;85.30;;;;;;5035624;28;20043;-78
2023/06/08 00:28:47;;;;;;;41.80;27.42;;;15.50;85.40;;;;;;5043614;28;20462;-79
2023/06/08 00:31:13;;;;;;;44.88;26.98;;;15.40;85.40;;;;;;5033036;28;20530;-78
2023/06/08 00:33:39;;;;;;;36.10;24.83;;;15.40;85.40;;;;;;5042866;28;20029;-78
2023/06/08 00:36:05;;;;;;;38.15;27.25;;;15.40;85.40;;;;;;5037209;28;20025;-77
2023/06/08 00:38:31;;;;;;;38.83;26.77;;;15.40;85.40;;;;;;5042657;28;20037;-78
2023/06/08 00:40:57;;;;;;;34.53;26.27;;;15.40;85.40;;;;;;5035857;28;20082;-78
2023/06/08 00:43:22;;;;;;;42.05;27.17;;;15.40;85.50;;;;;;5042408;28;20558;-77
2023/06/08 00:45:48;;;;;;;42.20;27.70;;;15.40;85.60;;;;;;5036853;28;20040;-77
2023/06/08 00:48:15;;;;;;;44.97;27.23;;;15.30;85.60;;;;;;5045025;28;20040;-78
2023/06/08 00:50:43;;;;;;;43.20;26.70;;;15.30;85.70;;;;;;5040386;28;20100;-78
2023/06/08 00:53:08;;;;;;;40.95;26.63;;;15.30;85.80;;;;;;5041112;28;20048;-77
2023/06/08 00:55:34;;;;;;;40.85;26.20;;;15.40;85.80;;;;;;5043776;28;20017;-77
2023/06/08 00:58:01;;;;;;;40.90;27.88;;;15.30;85.80;;;;;;5034504;28;20037;-78
2023/06/08 01:00:27;;;;;;;39.75;26.50;;;15.30;85.90;;;;;;5041402;28;20094;-77
2023/06/08 01:02:55;;;;;;;41.45;27.15;;;15.30;85.90;;;;;;5039600;28;20273;-77
2023/06/08 01:05:21;;;;;;;41.67;26.73;;;15.30;85.90;;;;;;5041395;28;20035;-77
2023/06/08 01:08:10;;;;;;;35.10;25.83;;;15.30;85.90;;;;;;5040647;28;20141;-77
2023/06/08 01:10:47;;;;;;;38.25;28.27;;;15.30;85.90;;;;;;5034650;28;20117;-77
2023/06/08 01:13:36;;;;;;;41.00;27.05;;;15.20;85.90;;;;;;5019329;28;20058;-78
2023/06/08 01:16:04;;;;;;;46.72;26.88;;;15.20;86.10;;;;;;5018663;28;20056;-78
2023/06/08 01:18:38;;;;;;;44.28;26.88;;;15.20;86.00;;;;;;5042098;28;20029;-76
2023/06/08 01:21:30;;;;;;;36.83;25.73;;;15.10;86.40;;;;;;5043386;28;20037;-77
2023/06/08 01:24:12;;;;;;;40.42;26.58;;;15.10;86.40;;;;;;5005979;28;20045;-77
2023/06/08 01:26:43;;;;;;;40.53;26.65;;;15.10;86.60;;;;;;5032300;28;20034;-76
2023/06/08 01:29:10;;;;;;;40.35;26.58;;;15.10;86.60;;;;;;5030062;28;20160;-76
2023/06/08 01:31:38;;;;;;;38.40;25.58;;;15.10;86.70;;;;;;5031103;28;20481;-77
2023/06/08 01:34:05;;;;;;;36.60;26.17;;;15.10;86.60;;;;;;5035023;28;20364;-77
2023/06/08 01:36:51;;;;;;;41.58;26.92;;;15.10;86.80;;;;;;5027799;28;20184;-77
2023/06/08 01:39:26;;;;;;;34.33;24.52;;;15.10;86.70;;;;;;5028013;28;20120;-77
2023/06/08 01:41:54;;;;;;;;;;;15.10;86.80;;;;;;5026373;28;20033;-78
2023/06/08 01:44:21;;;;;;;37.97;24.75;;;15.10;86.50;;;;;;5029263;28;20009;-77
2023/06/08 01:46:58;;;;;;;30.40;22.83;;;15.10;86.40;;;;;;5027957;28;20030;-77
2023/06/08 01:49:27;;;;;;;39.22;23.65;;;15.10;86.40;;;;;;5031474;28;20036;-76
2023/06/08 01:51:54;;;;;;;34.25;22.13;;;15.10;86.40;;;;;;5025649;28;20033;-77
2023/06/08 01:54:21;;;;;;;35.53;22.45;;;15.00;86.50;;;;;;5043036;28;20059;-77
2023/06/08 01:56:47;;;;;;;35.58;23.25;;;15.10;86.50;;;;;;5036877;28;20040;-77
2023/06/08 01:59:13;;;;;;;32.72;20.73;;;15.00;86.30;;;;;;5036395;28;20044;-76
2023/06/08 02:01:38;;;;;;;31.90;23.27;;;15.00;86.30;;;;;;5040988;28;20041;-77
2023/06/08 02:04:04;;;;;;;38.50;22.15;;;15.00;86.10;;;;;;5044490;28;20028;-77
2023/06/08 02:06:30;;;;;;;34.67;22.27;;;15.00;86.20;;;;;;5040167;28;20084;-77
2023/06/08 02:08:56;;;;;;;34.75;22.35;;;15.00;86.00;;;;;;5038794;28;20608;-78
2023/06/08 02:11:22;;;;;;;32.85;21.85;;;15.00;86.00;;;;;;5029722;28;20108;-77
2023/06/08 02:13:48;;;;;;;36.40;22.13;;;15.00;86.00;;;;;;5041827;28;20702;-78
2023/06/08 02:16:18;;;;;;;33.58;23.30;;;15.00;86.00;;;;;;5027357;28;20412;-77
2023/06/08 02:18:45;;;;;;;34.78;22.25;;;14.90;86.10;;;;;;5041781;28;20140;-78
2023/06/08 02:21:11;;;;;;;36.92;24.50;;;14.90;86.20;;;;;;5032759;28;20034;-78
2023/06/08 02:23:38;;;;;;;34.90;24.25;;;14.80;86.40;;;;;;5036290;28;20029;-78
2023/06/08 02:26:07;;;;;;;38.70;24.58;;;14.90;86.50;;;;;;5045000;28;20405;-77
2023/06/08 02:28:33;;;;;;;36.33;23.85;;;14.90;86.40;;;;;;5040973;28;20036;-78
2023/06/08 02:30:58;;;;;;;37.38;23.38;;;14.80;86.40;;;;;;5041846;28;20461;-77
2023/06/08 02:33:24;;;;;;;35.83;22.42;;;14.80;86.30;;;;;;5045468;28;20074;-79
2023/06/08 02:35:50;;;;;;;37.35;23.92;;;14.80;86.40;;;;;;5039397;28;20469;-77
2023/06/08 02:38:16;;;;;;;39.40;23.27;;;14.80;86.40;;;;;;5034325;28;20037;-78
2023/06/08 02:40:42;;;;;;;37.53;23.85;;;14.70;86.30;;;;;;5038730;28;20037;-78
2023/06/08 02:43:11;;;;;;;36.97;23.08;;;14.70;86.50;;;;;;5039081;28;20485;-78
2023/06/08 02:45:37;;;;;;;38.95;22.27;;;14.70;86.50;;;;;;5044370;28;20035;-76
2023/06/08 02:48:03;;;;;;;32.30;21.70;;;14.60;86.50;;;;;;5042528;28;20036;-79
2023/06/08 02:50:29;;;;;;;30.05;21.25;;;14.70;86.40;;;;;;5045064;28;20052;-79
2023/06/08 02:52:55;;;;;;;30.45;21.60;;;14.60;86.40;;;;;;5036382;28;20033;-79
2023/06/08 02:55:20;;;;;;;34.13;21.35;;;14.60;86.40;;;;;;5046932;28;20580;-78
2023/06/08 02:57:49;;;;;;;30.52;21.20;;;14.60;86.30;;;;;;5043009;28;20041;-79
2023/06/08 03:00:15;;;;;;;39.10;22.60;;;14.60;86.20;;;;;;5043413;28;20372;-78
2023/06/08 03:02:40;;;;;;;34.03;19.98;;;14.60;86.00;;;;;;5040960;28;20025;-77
2023/06/08 03:05:06;;;;;;;29.67;20.90;;;14.50;86.20;;;;;;5040215;28;20440;-77
2023/06/08 03:07:36;;;;;;;32.13;19.92;;;14.50;86.30;;;;;;5046132;28;20039;-77
2023/06/08 03:10:05;;;;;;;33.08;21.55;;;14.50;86.30;;;;;;5044349;28;20123;-77
2023/06/08 03:12:30;;;;;;;30.92;20.90;;;14.50;86.40;;;;;;5035852;28;20037;-77
2023/06/08 03:14:56;;;;;;;33.33;21.38;;;14.50;86.30;;;;;;5045898;28;20025;-77
2023/06/08 03:17:24;;;;;;;35.80;22.23;;;14.50;86.20;;;;;;5037618;28;20381;-77
2023/06/08 03:19:50;;;;;;;32.28;21.40;;;14.40;86.30;;;;;;5032260;28;20187;-78
2023/06/08 03:22:19;;;;;;;35.22;22.75;;;14.40;86.30;;;;;;5035463;28;20069;-78
2023/06/08 03:24:48;;;;;;;34.05;22.63;;;14.40;86.40;;;;;;5045993;28;20028;-78
2023/06/08 03:27:14;;;;;;;39.13;22.95;;;14.40;86.40;;;;;;5044185;28;20049;-78
2023/06/08 03:29:41;;;;;;;34.67;23.00;;;14.40;86.50;;;;;;5037196;28;20274;-77
2023/06/08 03:32:07;;;;;;;36.78;22.75;;;14.40;86.40;;;;;;5038462;28;20054;-78
2023/06/08 03:34:33;;;;;;;40.15;24.73;;;14.40;86.50;;;;;;5042303;28;20036;-77
2023/06/08 03:36:59;;;;;;;39.22;25.10;;;14.40;86.50;;;;;;5042543;28;20040;-79
2023/06/08 03:39:24;;;;;;;36.10;24.38;;;14.30;86.60;;;;;;5040844;28;20906;-77
2023/06/08 03:41:50;;;;;;;39.05;26.27;;;14.30;86.60;;;;;;5037018;28;20543;-77
2023/06/08 03:44:16;;;;;;;35.08;25.17;;;14.30;86.70;;;;;;5042723;28;20056;-77
2023/06/08 03:46:42;;;;;;;41.03;26.67;;;14.30;86.70;;;;;;5044602;28;20121;-77
2023/06/08 03:49:07;;;;;;;39.67;25.95;;;14.30;86.90;;;;;;5044146;28;20024;-77
2023/06/08 03:51:33;;;;;;;41.55;28.65;;;14.30;86.90;;;;;;5042717;28;20064;-78
2023/06/08 03:53:59;;;;;;;41.40;27.15;;;14.20;86.90;;;;;;5043473;28;20032;-77
2023/06/08 03:56:25;;;;;;;41.70;28.38;;;14.20;87.20;;;;;;5042977;28;20362;-78
2023/06/08 03:58:51;;;;;;;44.15;27.63;;;14.20;87.10;;;;;;5038925;28;20409;-78
2023/06/08 04:01:17;;;;;;;42.90;28.98;;;14.10;87.10;;;;;;5038940;28;20036;-77
2023/06/08 04:03:43;;;;;;;42.08;27.77;;;14.20;87.20;;;;;;5039670;28;20084;-78
2023/06/08 04:06:09;;;;;;;40.75;27.55;;;14.20;87.20;;;;;;5042587;28;20496;-79
2023/06/08 04:08:41;;;;;;;41.75;28.02;;;14.20;87.20;;;;;;5044545;28;20420;-79
2023/06/08 04:11:08;;;;;;;46.28;29.85;;;14.20;87.20;;;;;;5035259;28;20028;-78
2023/06/08 04:13:36;;;;;;;46.22;28.23;;;14.20;87.20;;;;;;5042083;28;20528;-78
2023/06/08 04:16:12;;;;;;;41.92;28.45;;;14.10;87.30;;;;;;5038800;28;20020;-79
2023/06/08 04:18:39;;;;;;;42.78;28.35;;;14.10;87.40;;;;;;5044138;28;20033;-78
2023/06/08 04:21:06;;;;;;;45.25;27.80;;;14.20;87.20;;;;;;5038701;28;20402;-79
2023/06/08 04:23:36;;;;;;;43.25;28.67;;;14.20;87.30;;;;;;5041084;28;20028;-78
2023/06/08 04:26:06;;;;;;;44.78;29.23;;;14.20;87.30;;;;;;5037087;28;20024;-79
2023/06/08 04:28:33;;;;;;;45.00;29.60;;;14.10;87.40;;;;;;5039856;28;20488;-79
2023/06/08 04:30:59;;;;;;;48.30;28.58;;;14.20;87.40;;;;;;5035915;28;20029;-78
2023/06/08 04:33:28;;;;;;;50.75;29.67;;;14.30;87.40;;;;;;5042906;28;20037;-79
2023/06/08 04:35:54;;;;;;;47.67;28.05;;;14.20;87.40;;;;;;5039311;28;20021;-79
2023/06/08 04:38:20;;;;;;;39.25;27.27;;;14.40;87.30;;;;;;5039869;28;20029;-78
2023/06/08 04:40:54;;;;;;;39.42;28.13;;;14.50;87.00;;;;;;5032434;28;20033;-79
2023/06/08 04:43:30;;;;;;;47.58;30.80;;;14.50;86.80;;;;;;5034959;28;20033;-78
2023/06/08 04:45:57;;;;;;;45.00;30.10;;;14.50;87.00;;;;;;5034326;28;20040;-79
2023/06/08 04:48:27;;;;;;;42.90;27.55;;;14.50;86.80;;;;;;5037003;28;20033;-78
2023/06/08 04:50:54;;;;;;;45.90;28.20;;;14.60;86.70;;;;;;5029988;28;20075;-78
2023/06/08 04:53:21;;;;;;;39.90;26.70;;;14.60;86.60;;;;;;5031062;28;20025;-78
2023/06/08 04:55:48;;;;;;;42.80;27.15;;;14.60;86.30;;;;;;5031007;28;20457;-79
2023/06/08 04:58:15;;;;;;;38.33;26.17;;;14.70;86.00;;;;;;5031065;28;20029;-78
2023/06/08 05:00:41;;;;;;;42.55;28.45;;;14.70;85.90;;;;;;5032463;28;20033;-78
2023/06/08 05:03:07;;;;;;;41.83;26.45;;;14.70;86.20;;;;;;5038627;28;20028;-78
2023/06/08 05:05:33;;;;;;;36.00;25.33;;;14.70;86.00;;;;;;5039385;28;20114;-79
2023/06/08 05:07:59;;;;;;;39.50;26.98;;;14.80;85.80;;;;;;5037298;28;20436;-79
2023/06/08 05:10:24;;;;;;;37.42;25.92;;;15.10;85.70;;;;;;5034914;28;20029;-78
2023/06/08 05:12:52;;;;;;;40.05;25.90;;;15.60;84.00;;;;;;5039679;28;20447;-77
2023/06/08 05:15:18;;;;;;;35.92;24.88;;;16.30;82.10;;;;;;5042983;28;20785;-79
2023/06/08 05:17:44;;;;;;;33.17;24.38;;;16.80;80.40;;;;;;5033186;28;20029;-79
2023/06/08 05:20:10;;;;;;;36.97;24.10;;;17.00;78.50;;;;;;5033924;28;20108;-78
2023/06/08 05:22:36;;;;;;;32.67;22.67;;;17.30;77.00;;;;;;5034195;28;20083;-80
2023/06/08 05:25:01;;;;;;;35.83;24.10;;;17.40;76.80;;;;;;5035986;28;20481;-78
2023/06/08 05:27:27;;;;;;;31.27;22.85;;;17.20;77.20;;;;;;5039297;28;20041;-77
2023/06/08 05:29:53;;;;;;;30.15;23.13;;;17.40;77.00;;;;;;5043666;28;20025;-77
2023/06/08 05:32:19;;;;;;;29.73;21.83;;;17.50;76.10;;;;;;5037571;28;20049;-77
2023/06/08 05:34:44;;;;;;;31.95;22.27;;;17.60;76.60;;;;;;5041611;28;20412;-76
2023/06/08 05:37:10;;;;;;;35.03;22.05;;;17.90;75.50;;;;;;5042662;28;20029;-77
2023/06/08 05:39:36;;;;;;;33.95;23.02;;;18.00;74.70;;;;;;5037138;28;20587;-79
2023/06/08 05:42:01;;;;;;;32.65;21.00;;;18.20;73.30;;;;;;5033886;28;20041;-79
2023/06/08 05:44:28;;;;;;;32.10;21.88;;;18.10;74.60;;;;;;5039624;28;20086;-80
2023/06/08 05:46:53;;;;;;;31.63;22.25;;;18.10;73.60;;;;;;5029397;28;20087;-79
2023/06/08 05:49:19;;;;;;;33.60;22.20;;;17.60;74.70;;;;;;5042367;28;20025;-79
2023/06/08 05:51:45;;;;;;;34.13;23.00;;;17.50;75.40;;;;;;5035995;28;20409;-79
2023/06/08 05:54:10;;;;;;;34.35;22.77;;;17.30;75.90;;;;;;5040833;28;20108;-79
2023/06/08 05:56:36;;;;;;;33.83;22.52;;;17.00;77.20;;;;;;5040937;28;20032;-79
2023/06/08 05:59:02;;;;;;;32.75;24.00;;;16.60;79.40;;;;;;5035841;28;20021;-79
2023/06/08 06:01:28;;;;;;;33.67;24.45;;;16.50;79.50;;;;;;5032251;28;20086;-79
2023/06/08 06:03:53;;;;;;;36.22;23.73;;;16.20;80.50;;;;;;5041294;28;20078;-79
2023/06/08 06:06:19;;;;;;;31.25;23.90;;;16.20;81.40;;;;;;5037102;28;20378;-79
2023/06/08 06:08:45;;;;;;;33.90;23.08;;;16.50;80.70;;;;;;5042760;28;20049;-78
2023/06/08 06:11:10;;;;;;;35.33;23.67;;;16.50;79.70;;;;;;5033778;28;20043;-79
2023/06/08 06:13:36;;;;;;;32.70;23.25;;;16.60;79.50;;;;;;5042707;28;20400;-79
2023/06/08 06:16:02;;;;;;;34.95;23.27;;;16.60;80.20;;;;;;5040235;28;20096;-80
2023/06/08 06:18:28;;;;;;;33.60;23.08;;;16.60;80.20;;;;;;5043499;28;20029;-82
2023/06/08 06:20:53;;;;;;;31.83;23.30;;;16.60;79.70;;;;;;5034192;28;20065;-78
2023/06/08 06:23:19;;;;;;;38.03;23.13;;;16.80;78.90;;;;;;5041898;28;20159;-77
2023/06/08 06:25:45;;;;;;;32.30;22.85;;;16.60;79.70;;;;;;5038828;28;20040;-77
2023/06/08 06:28:11;;;;;;;31.05;23.17;;;16.80;79.20;;;;;;5030952;28;20044;-77
2023/06/08 06:30:36;;;;;;;36.03;24.55;;;16.80;78.60;;;;;;5041913;28;20036;-77
2023/06/08 06:33:02;;;;;;;33.35;23.60;;;16.70;79.50;;;;;;5041150;28;20517;-78
2023/06/08 06:35:28;;;;;;;30.25;22.77;;;16.80;79.10;;;;;;5043246;28;20049;-76
2023/06/08 06:37:54;;;;;;;36.08;23.58;;;17.00;79.10;;;;;;5037747;28;20082;-76
2023/06/08 06:40:21;;;;;;;31.42;23.02;;;17.10;77.90;;;;;;5040806;28;20033;-77
2023/06/08 06:42:46;;;;;;;31.10;24.08;;;17.10;78.00;;;;;;5039847;28;20029;-77
2023/06/08 06:45:12;;;;;;;32.35;23.75;;;17.10;78.10;;;;;;5041836;28;20104;-78
2023/06/08 06:47:39;;;;;;;32.22;23.50;;;17.30;78.10;;;;;;5034952;28;20211;-76
2023/06/08 06:50:06;;;;;;;33.00;22.70;;;17.40;77.90;;;;;;5040609;28;20153;-77
2023/06/08 06:52:32;;;;;;;33.70;22.77;;;17.50;76.90;;;;;;5040053;28;20041;-77
2023/06/08 06:55:01;;;;;;;31.90;22.95;;;17.40;77.30;;;;;;5037064;28;20029;-77
2023/06/08 06:57:28;;;;;;;36.80;23.40;;;17.60;77.00;;;;;;5036972;28;20169;-78
2023/06/08 06:59:54;;;;;;;34.30;23.25;;;17.90;76.70;;;;;;5032404;28;20080;-79
2023/06/08 07:02:19;;;;;;;30.85;22.33;;;17.80;76.80;;;;;;5036049;28;20526;-78
2023/06/08 07:04:45;;;;;;;31.13;21.70;;;17.90;75.70;;;;;;5039393;28;20093;-77
2023/06/08 07:07:11;;;;;;;30.63;21.35;;;18.10;75.50;;;;;;5039102;28;20198;-79
2023/06/08 07:09:36;;;;;;;29.25;21.40;;;18.30;75.00;;;;;;5044265;28;20021;-76
2023/06/08 07:12:02;;;;;;;30.63;22.35;;;18.10;75.00;;;;;;5043607;28;20082;-77
2023/06/08 07:14:28;;;;;;;31.70;22.42;;;18.10;74.80;;;;;;5035252;28;20124;-76
2023/06/08 07:16:54;;;;;;;30.25;20.98;;;18.20;74.50;;;;;;5041912;28;20048;-77
2023/06/08 07:19:19;;;;;;;30.13;21.30;;;18.40;74.30;;;;;;5045876;28;20040;-77
2023/06/08 07:21:45;;;;;;;32.55;22.50;;;18.40;74.30;;;;;;5043708;28;20044;-76
2023/06/08 07:24:11;;;;;;;28.80;22.80;;;18.40;74.30;;;;;;5045665;28;20033;-77
2023/06/08 07:26:36;;;;;;;30.95;22.08;;;18.60;74.50;;;;;;5036697;28;20048;-76
2023/06/08 07:29:03;;;;;;;31.33;22.25;;;18.70;73.90;;;;;;5038127;28;20394;-76
2023/06/08 07:31:29;;;;;;;28.52;21.20;;;18.80;73.20;;;;;;5039756;28;20501;-76
2023/06/08 07:33:55;;;;;;;29.77;22.60;;;18.80;72.80;;;;;;5044489;28;20079;-76
2023/06/08 07:36:22;;;;;;;32.42;21.15;;;18.70;73.10;;;;;;5035753;28;20037;-77
2023/06/08 07:38:50;;;;;;;28.23;21.00;;;18.90;73.50;;;;;;5047446;28;20500;-76
2023/06/08 07:41:19;;;;;;;30.00;22.75;;;19.00;72.40;;;;;;5042497;28;20044;-77
2023/06/08 07:43:45;;;;;;;36.13;23.23;;;19.10;72.40;;;;;;5037297;28;20397;-76
2023/06/08 07:46:12;;;;;;;26.90;22.27;;;19.10;71.80;;;;;;5036625;28;20072;-76
2023/06/08 07:48:38;;;;;;;28.92;21.33;;;19.00;72.50;;;;;;5046438;28;20120;-77
2023/06/08 07:51:03;;;;;;;30.88;21.45;;;19.10;72.20;;;;;;5037161;28;20104;-76
2023/06/08 07:53:38;;;;;;;29.05;21.13;;;19.40;71.40;;;;;;5044510;28;20127;-77
2023/06/08 07:56:04;;;;;;;31.48;22.38;;;19.60;70.70;;;;;;5034814;28;20032;-77
2023/06/08 07:58:31;;;;;;;29.88;22.48;;;19.40;70.90;;;;;;5045253;28;20040;-77
2023/06/08 08:01:00;;;;;;;29.77;21.42;;;19.30;71.10;;;;;;5040185;28;20025;-76
2023/06/08 08:03:26;;;;;;;27.48;20.48;;;19.50;70.40;;;;;;5041413;28;20025;-76
2023/06/08 08:05:52;;;;;;;30.67;21.75;;;19.10;71.00;;;;;;5043902;28;20036;-77
2023/06/08 08:08:18;;;;;;;28.73;21.42;;;19.30;71.60;;;;;;5041901;28;20045;-77
2023/06/08 08:10:44;;;;;;;28.95;19.70;;;19.40;70.50;;;;;;5041405;28;20029;-78
2023/06/08 08:13:11;;;;;;;29.80;20.30;;;19.30;70.40;;;;;;5036426;28;20057;-76
2023/06/08 08:15:39;;;;;;;29.83;19.98;;;19.30;70.80;;;;;;5041444;28;20428;-76
2023/06/08 08:18:05;;;;;;;30.98;21.20;;;19.60;70.20;;;;;;5042127;28;20045;-76
2023/06/08 08:20:31;;;;;;;28.75;21.10;;;19.80;69.30;;;;;;5039630;28;20420;-76
2023/06/08 08:22:56;;;;;;;29.42;20.88;;;19.90;69.90;;;;;;5032089;28;20037;-77
2023/06/08 08:25:22;;;;;;;32.95;21.90;;;20.00;68.90;;;;;;5029180;28;20079;-76
2023/06/08 08:27:47;;;;;;;27.80;21.52;;;20.20;69.10;;;;;;5036828;28;20067;-75
2023/06/08 08:30:13;;;;;;;27.83;21.05;;;20.20;68.90;;;;;;5043312;28;20528;-76
2023/06/08 08:32:39;;;;;;;28.90;20.52;;;20.30;68.80;;;;;;5039849;28;20501;-76
2023/06/08 08:35:05;;;;;;;31.15;20.02;;;20.50;68.50;;;;;;5033604;28;20071;-76
2023/06/08 08:37:34;;;;;;;29.27;21.27;;;20.50;68.10;;;;;;5038268;28;20072;-75
2023/06/08 08:39:59;;;;;;;29.73;21.95;;;20.50;68.00;;;;;;5045444;28;20103;-77
2023/06/08 08:42:27;;;;;;;31.98;21.65;;;20.50;67.50;;;;;;5040559;28;20033;-75
2023/06/08 08:44:57;;;;;;;30.75;23.15;;;20.60;67.60;;;;;;5046293;28;20040;-76
2023/06/08 08:47:26;;;;;;;28.60;21.85;;;20.60;67.20;;;;;;5036498;28;20051;-74
2023/06/08 08:50:00;;;;;;;28.95;21.17;;;20.60;67.70;;;;;;5034879;28;20025;-75
2023/06/08 08:52:29;;;;;;;30.73;21.08;;;21.00;67.40;;;;;;5037362;28;20370;-75
2023/06/08 08:54:57;;;;;;;27.23;21.20;;;21.10;65.30;;;;;;5042510;28;20016;-77
2023/06/08 08:57:27;;;;;;;26.42;21.50;;;21.20;65.90;;;;;;5037186;28;20033;-77
2023/06/08 08:59:54;;;;;;;26.52;20.98;;;21.50;64.80;;;;;;5044065;28;20064;-77
2023/06/08 09:02:20;;;;;;;25.90;20.95;;;21.30;65.60;;;;;;5034773;28;20040;-77
2023/06/08 09:04:46;;;;;;;28.15;19.90;;;21.30;66.10;;;;;;5042562;28;20132;-77
2023/06/08 09:07:18;;;;;;;29.33;19.95;;;21.60;64.60;;;;;;5032106;28;20166;-78
2023/06/08 09:10:21;;;;;;;25.13;18.00;;;21.80;64.00;;;;;;5031729;28;20152;-76
2023/06/08 09:12:49;;;;;;;25.63;18.70;;;21.80;63.10;;;;;;5025754;28;20073;-76
2023/06/08 09:15:26;;;;;;;24.30;18.85;;;21.90;64.10;;;;;;5041083;28;20020;-76
2023/06/08 09:17:53;;;;;;;25.27;20.00;;;22.10;62.50;;;;;;5040098;28;20043;-77
2023/06/08 09:20:30;;;;;;;25.02;19.25;;;22.20;62.60;;;;;;5033859;28;20059;-77
2023/06/08 09:22:56;;;;;;;23.60;19.35;;;22.20;62.40;;;;;;5034116;28;20429;-77
2023/06/08 09:25:36;;;;;;;22.35;19.80;;;22.40;61.70;;;;;;5042259;28;20057;-75
2023/06/08 09:28:15;;;;;;;27.42;20.52;;;22.10;62.70;;;;;;5034761;28;20041;-76
2023/06/08 09:30:42;;;;;;;30.85;21.25;;;22.30;62.20;;;;;;5038478;28;20014;-76
2023/06/08 09:33:21;;;;;;;26.27;20.55;;;22.30;63.00;;;;;;5031037;28;20037;-77
2023/06/08 09:36:02;;;;;;;27.63;20.92;;;22.40;62.00;;;;;;5035914;28;20025;-77
2023/06/08 09:38:29;;;;;;;24.33;19.55;;;22.20;62.60;;;;;;5024699;28;20032;-76
2023/06/08 09:41:23;;;;;;;26.60;20.90;;;22.10;63.20;;;;;;5034063;28;20053;-80
2023/06/08 09:43:50;;;;;;;26.35;20.33;;;22.50;62.30;;;;;;5034699;28;20024;-76
2023/06/08 09:46:35;;;;;;;26.35;20.27;;;22.30;62.40;;;;;;5033539;28;20530;-75
2023/06/08 09:49:05;;;;;;;25.27;19.45;;;22.30;62.70;;;;;;5029888;28;20020;-76
2023/06/08 09:51:34;;;;;;;25.33;19.45;;;22.80;61.80;;;;;;5028651;28;20044;-76
2023/06/08 09:54:01;;;;;;;24.73;19.88;;;22.70;61.50;;;;;;5036351;28;20061;-78
2023/06/08 09:56:28;;;;;;;23.50;19.73;;;22.70;61.50;;;;;;5032163;28;20088;-75
2023/06/08 09:59:02;;;;;;;29.08;20.45;;;22.80;61.00;;;;;;5036585;28;20068;-76
2023/06/08 10:01:45;;;;;;;26.73;20.90;;;22.70;61.90;;;;;;5026436;28;20033;-76
2023/06/08 10:04:21;;;;;;;26.90;19.90;;;23.00;60.90;;;;;;5028605;28;20033;-76
2023/06/08 10:06:51;;;;;;;26.63;19.58;;;22.70;61.10;;;;;;5026389;28;20021;-75
2023/06/08 10:09:19;;;;;;;26.83;19.25;;;23.00;60.80;;;;;;5043440;28;20136;-74
2023/06/08 10:11:46;;;;;;;25.58;18.90;;;22.80;61.00;;;;;;5042374;28;20029;-75
2023/06/08 10:14:13;;;;;;;27.02;19.42;;;23.10;60.20;;;;;;5043051;28;20110;-75
2023/06/08 10:16:40;;;;;;;23.42;16.92;;;23.20;60.00;;;;;;5035554;28;20033;-74
2023/06/08 10:19:06;;;;;;;19.65;16.70;;;23.50;59.00;;;;;;5029334;28;20021;-75
2023/06/08 10:21:32;;;;;;;26.92;18.38;;;23.60;59.00;;;;;;5035024;28;20029;-76
2023/06/08 10:23:59;;;;;;;21.85;18.00;;;23.90;57.40;;;;;;5036827;28;20029;-76
2023/06/08 10:26:27;;;;;;;23.13;17.10;;;23.80;58.10;;;;;;5036384;28;20473;-75
2023/06/08 10:29:10;;;;;;;24.13;16.25;;;24.00;57.80;;;;;;5036182;28;20087;-75
2023/06/08 10:31:40;;;;;;;26.83;16.67;;;23.60;57.00;;;;;;5030679;28;20072;-75
2023/06/08 10:34:12;;;;;;;21.63;17.05;;;23.50;57.50;;;;;;5026128;28;20478;-76
2023/06/08 10:36:42;;;;;;;23.48;15.75;;;23.70;57.90;;;;;;5025884;28;20566;-76
2023/06/08 10:39:14;;;;;;;19.27;13.82;;;24.00;57.20;;;;;;5029790;28;20083;-76
2023/06/08 10:41:44;;;;;;;21.85;14.40;;;24.10;57.10;;;;;;5029015;28;20113;-76
2023/06/08 10:44:29;;;;;;;21.45;15.30;;;24.10;56.60;;;;;;5032679;28;20030;-76
2023/06/08 10:47:02;;;;;;;19.85;14.02;;;23.80;56.30;;;;;;5029844;28;20038;-75
2023/06/08 10:49:30;;;;;;;23.17;14.95;;;23.80;56.40;;;;;;5032086;28;20029;-75
2023/06/08 10:51:57;;;;;;;21.30;14.57;;;23.90;54.90;;;;;;5029052;28;20029;-75
2023/06/08 10:54:23;;;;;;;18.70;12.95;;;23.90;55.90;;;;;;5031609;28;20037;-75
2023/06/08 10:56:53;;;;;;;18.60;14.07;;;24.30;55.60;;;;;;5032435;28;20094;-75
2023/06/08 10:59:33;;;;;;;18.77;14.25;;;24.30;54.70;;;;;;5029373;28;20095;-75
2023/06/08 11:02:04;;;;;;;18.10;12.88;;;24.10;55.50;;;;;;5030252;28;20034;-75
2023/06/08 11:04:31;;;;;;;19.23;13.32;;;24.60;55.10;;;;;;5033642;28;20028;-75
2023/06/08 11:07:01;;;;;;;20.70;14.85;;;24.60;54.80;;;;;;5027031;28;20095;-74
2023/06/08 11:09:34;;;;;;;22.15;14.70;;;24.60;53.30;;;;;;5031884;28;20064;-76
2023/06/08 11:12:00;;;;;;;19.60;14.13;;;24.30;54.30;;;;;;5028018;28;20044;-80
2023/06/08 11:14:27;;;;;;;15.90;13.85;;;24.20;54.50;;;;;;5033156;28;20040;-76
2023/06/08 11:16:54;;;;;;;16.48;13.38;;;24.30;54.20;;;;;;5030021;28;20072;-77
2023/06/08 11:19:27;;;;;;;19.45;15.13;;;24.50;54.90;;;;;;5028752;28;20029;-76
2023/06/08 11:21:53;;;;;;;19.83;14.52;;;24.50;53.90;;;;;;5028597;28;20053;-81
2023/06/08 11:24:25;;;;;;;20.60;15.50;;;24.40;54.60;;;;;;5034465;28;20025;-76
2023/06/08 11:27:01;;;;;;;23.27;15.68;;;24.50;54.10;;;;;;5027929;28;20164;-75
2023/06/08 11:29:27;;;;;;;19.40;14.68;;;24.50;54.50;;;;;;5029224;28;20026;-75
2023/06/08 11:32:10;;;;;;;20.90;14.10;;;24.60;54.30;;;;;;5021429;28;20128;-74
2023/06/08 11:34:37;;;;;;;22.10;14.57;;;25.00;53.20;;;;;;5014124;28;20021;-74
2023/06/08 11:37:03;;;;;;;18.73;13.57;;;24.80;53.60;;;;;;5015220;28;20125;-76
2023/06/08 11:39:33;;;;;;;17.90;14.50;;;24.70;54.20;;;;;;5031693;28;20041;-77
2023/06/08 11:41:59;;;;;;;20.77;16.35;;;25.00;53.20;;;;;;5025351;28;20029;-76
2023/06/08 11:44:30;;;;;;;22.10;16.42;;;24.90;53.00;;;;;;5026898;28;20068;-77
2023/06/08 11:46:56;;;;;;;21.70;14.60;;;24.90;53.40;;;;;;5030929;28;20073;-75
2023/06/08 11:49:23;;;;;;;22.58;15.65;;;25.00;53.50;;;;;;5040239;28;20071;-75
2023/06/08 11:51:52;;;;;;;22.30;15.68;;;25.10;52.50;;;;;;5027604;28;20037;-75
2023/06/08 11:54:18;;;;;;;21.38;17.27;;;24.70;53.90;;;;;;5040077;28;20029;-77
2023/06/08 11:56:47;;;;;;;23.63;17.40;;;24.50;54.60;;;;;;5042872;28;20033;-76
2023/06/08 11:59:16;;;;;;;20.77;15.65;;;24.70;53.60;;;;;;5054228;28;20509;-75
2023/06/08 12:01:59;;;;;;;21.58;14.75;;;25.20;53.20;;;;;;5055073;28;20090;-74
2023/06/08 12:04:33;;;;;;;21.65;15.77;;;25.40;52.90;;;;;;5048500;28;20035;-74
2023/06/08 12:07:07;;;;;;;23.30;15.18;;;25.50;52.30;;;;;;5049194;28;20084;-75
2023/06/08 12:09:33;;;;;;;23.80;16.60;;;25.50;52.70;;;;;;5054347;28;20121;-74
2023/06/08 12:12:09;;;;;;;21.67;17.90;;;25.80;52.50;;;;;;5043486;28;20060;-76
2023/06/08 12:14:36;;;;;;;21.05;16.38;;;25.50;51.80;;;;;;5048553;28;20098;-76
2023/06/08 12:17:05;;;;;;;23.30;16.73;;;25.50;52.30;;;;;;5051659;28;20037;-76
2023/06/08 12:19:31;;;;;;;19.85;15.27;;;25.70;51.60;;;;;;5046948;28;20036;-76
2023/06/08 12:21:57;;;;;;;23.00;17.02;;;26.00;50.80;;;;;;5040405;28;20591;-75
2023/06/08 12:24:23;;;;;;;25.42;17.85;;;25.60;51.60;;;;;;5050877;28;20040;-76
2023/06/08 12:26:49;;;;;;;20.55;15.63;;;25.50;51.30;;;;;;5041578;28;20080;-75
2023/06/08 12:29:15;;;;;;;20.20;15.65;;;25.40;52.90;;;;;;5044230;28;20044;-75
2023/06/08 12:31:40;;;;;;;24.38;16.95;;;25.80;51.70;;;;;;5045469;28;20063;-74
2023/06/08 12:34:06;;;;;;;20.73;17.15;;;25.80;51.00;;;;;;5046802;28;20052;-74